Time;durP1;ratioP1;P1;durP2;ratioP2;P2;SDS_P1;SDS_P2;PMS_P1;PMS_P2;Temp;Humidity;BMP_temperature;BMP_pressure;BME280_temperature;BME280_humidity;BME280_pressure;Samples;Min_cycle;Max_cycle;Signal;HPM_P1;HPM_P2
2021/07/06 00:00:40;;;;;;;6.72;2.80;;;;;;;;;;5032950;28;20077;-80
2021/07/06 00:03:07;;;;;;;4.00;2.30;;;;;;;;;;5033295;28;20128;-79
2021/07/06 00:05:35;;;;;;;4.60;2.00;;;;;;;;;;5033396;28;20088;-79
2021/07/06 00:08:01;;;;;;;4.20;2.28;;;;;;;;;;5032886;28;20570;-80
2021/07/06 00:10:28;;;;;;;3.97;2.17;;;;;;;;;;5032625;28;20088;-81
2021/07/06 00:12:55;;;;;;;4.00;2.20;;;;;;;;;;5033470;28;20084;-80
2021/07/06 00:15:24;;;;;;;5.43;2.60;;;;;;;;;;5033323;28;20087;-78
2021/07/06 00:17:51;;;;;;;3.85;2.00;;;;;;;;;;5032824;28;20049;-82
2021/07/06 00:20:19;;;;;;;3.35;2.10;;;;;;;;;;5032953;28;20136;-78
2021/07/06 00:22:47;;;;;;;3.17;2.20;;;;;;;;;;5032626;28;20132;-78
2021/07/06 00:25:15;;;;;;;4.53;2.10;;;;;;;;;;5032807;28;20088;-78
2021/07/06 00:27:42;;;;;;;3.30;2.10;;;;;;;;;;5032431;28;20053;-78
2021/07/06 00:30:10;;;;;;;3.38;2.15;;;;;;;;;;5032219;28;20144;-82
2021/07/06 00:32:37;;;;;;;4.07;2.28;;;;;;;;;;5034515;28;20132;-82
2021/07/06 00:35:05;;;;;;;4.13;2.10;;;;;;;;;;5035793;28;20077;-80
2021/07/06 00:37:32;;;;;;;3.42;2.05;;;;;;;;;;5037442;28;20510;-80
2021/07/06 00:40:00;;;;;;;4.53;2.30;;;;;;;;;;5037370;28;20083;-80
2021/07/06 00:42:27;;;;;;;3.22;1.90;;;;;;;;;;5037475;28;20068;-80
2021/07/06 00:44:54;;;;;;;3.78;2.00;;;;;;;;;;5038145;28;20529;-80
2021/07/06 00:47:31;;;;;;;4.30;1.88;;;;;;;;;;5037655;28;20096;-80
2021/07/06 00:49:59;;;;;;;3.88;1.80;;;;;;;;;;5037660;28;20045;-80
2021/07/06 00:52:26;;;;;;;3.83;1.85;;;;;;;;;;5038629;28;20076;-79
2021/07/06 00:54:52;;;;;;;3.03;1.80;;;;;;;;;;5038612;28;20099;-78
2021/07/06 00:57:29;;;;;;;2.50;1.70;;;;;;;;;;5037284;28;20088;-79
2021/07/06 01:00:00;;;;;;;4.20;2.15;;;;;;;;;;5036562;28;20045;-79
2021/07/06 01:02:27;;;;;;;4.15;2.15;;;;;;;;;;5036020;28;20076;-79
2021/07/06 01:04:54;;;;;;;2.88;1.80;;;;;;;;;;5037277;28;20042;-79
2021/07/06 01:07:22;;;;;;;3.90;1.85;;;;;;;;;;5037141;28;20084;-80
2021/07/06 01:09:49;;;;;;;3.47;1.88;;;;;;;;;;5037718;28;20128;-79
2021/07/06 01:12:16;;;;;;;3.67;1.80;;;;;;;;;;5038345;28;20084;-79
2021/07/06 01:14:44;;;;;;;3.17;1.80;;;;;;;;;;5037380;28;20089;-82
2021/07/06 01:17:11;;;;;;;2.97;1.75;;;;;;;;;;5037424;28;20049;-80
2021/07/06 01:19:40;;;;;;;3.10;1.70;;;;;;;;;;5036938;28;20088;-79
2021/07/06 01:22:09;;;;;;;3.05;1.80;;;;;;;;;;5036839;28;20380;-80
2021/07/06 01:24:37;;;;;;;2.83;1.92;;;;;;;;;;5036783;28;20073;-80
2021/07/06 01:27:04;;;;;;;2.95;1.67;;;;;;;;;;5036819;28;20045;-80
2021/07/06 01:29:31;;;;;;;2.90;1.77;;;;;;;;;;5036991;28;20117;-81
2021/07/06 01:31:58;;;;;;;3.90;1.77;;;;;;;;;;5036203;28;20085;-80
2021/07/06 01:34:25;;;;;;;3.00;1.67;;;;;;;;;;5036729;28;20490;-81
2021/07/06 01:36:53;;;;;;;3.88;1.70;;;;;;;;;;5036815;28;20048;-80
2021/07/06 01:39:22;;;;;;;3.13;2.03;;;;;;;;;;5036718;28;20064;-80
2021/07/06 01:41:49;;;;;;;2.92;1.60;;;;;;;;;;5036723;28;20077;-80
2021/07/06 01:44:20;;;;;;;3.30;1.90;;;;;;;;;;5037236;28;20057;-80
2021/07/06 01:46:46;;;;;;;2.97;1.50;;;;;;;;;;5037337;28;20499;-81
2021/07/06 01:49:13;;;;;;;3.70;1.85;;;;;;;;;;5037339;28;20080;-80
2021/07/06 01:51:40;;;;;;;2.95;1.80;;;;;;;;;;5037008;28;20399;-81
2021/07/06 01:54:07;;;;;;;3.65;1.63;;;;;;;;;;5036694;28;20128;-80
2021/07/06 01:56:38;;;;;;;2.47;1.58;;;;;;;;;;5037118;28;20124;-81
2021/07/06 01:59:05;;;;;;;3.08;1.60;;;;;;;;;;5036491;28;20045;-80
2021/07/06 02:01:33;;;;;;;3.08;1.63;;;;;;;;;;5036492;28;20076;-80
2021/07/06 02:04:00;;;;;;;3.53;1.50;;;;;;;;;;5036194;28;20461;-79
2021/07/06 02:06:27;;;;;;;3.20;1.50;;;;;;;;;;5035984;28;20088;-80
2021/07/06 02:08:54;;;;;;;6.82;1.92;;;;;;;;;;5035684;28;20088;-80
2021/07/06 02:11:20;;;;;;;2.83;1.60;;;;;;;;;;5035216;28;20121;-81
2021/07/06 02:13:49;;;;;;;2.42;1.50;;;;;;;;;;5035439;28;20049;-80
2021/07/06 02:16:15;;;;;;;3.80;1.60;;;;;;;;;;5035880;28;20092;-80
2021/07/06 02:18:42;;;;;;;2.22;1.45;;;;;;;;;;5035021;28;20069;-79
2021/07/06 02:21:09;;;;;;;3.22;1.70;;;;;;;;;;5034855;28;20478;-79
2021/07/06 02:23:36;;;;;;;2.80;1.70;;;;;;;;;;5035658;28;20076;-80
2021/07/06 02:26:05;;;;;;;4.03;1.50;;;;;;;;;;5035588;28;20084;-80
2021/07/06 02:28:33;;;;;;;2.53;1.45;;;;;;;;;;5048149;22;20076;-75
2021/07/06 02:31:02;;;;;;;2.83;1.48;;;;;;;;;;5051430;28;20110;-76
2021/07/06 02:33:33;;;;;;;3.95;1.70;;;;;;;;;;5052549;28;20490;-76
2021/07/06 02:35:59;;;;;;;;;;;;;;;;;;5053384;28;20055;-76
2021/07/06 02:38:26;;;;;;;3.25;1.77;;;;;;;;;;5052503;28;20389;-76
2021/07/06 02:40:53;;;;;;;2.65;1.65;;;;;;;;;;5052341;28;20068;-76
2021/07/06 02:43:20;;;;;;;2.95;1.63;;;;;;;;;;5052482;28;20132;-76
2021/07/06 02:45:47;;;;;;;3.78;1.60;;;;;;;;;;5052738;28;20073;-76
2021/07/06 02:48:15;;;;;;;4.07;1.60;;;;;;;;;;5052181;28;20052;-76
2021/07/06 02:50:42;;;;;;;3.40;1.65;;;;;;;;;;5051669;28;20493;-76
2021/07/06 02:53:09;;;;;;;3.22;1.40;;;;;;;;;;5052617;28;20135;-76
2021/07/06 02:55:36;;;;;;;2.92;1.42;;;;;;;;;;5051830;28;20507;-76
2021/07/06 02:58:04;;;;;;;3.50;1.60;;;;;;;;;;5052352;28;20087;-76
2021/07/06 03:00:33;;;;;;;3.17;1.55;;;;;;;;;;5051698;28;20406;-77
2021/07/06 03:03:01;;;;;;;2.22;1.40;;;;;;;;;;5052262;28;20456;-76
2021/07/06 03:05:31;;;;;;;2.78;1.40;;;;;;;;;;5052654;28;20049;-77
2021/07/06 03:07:58;;;;;;;3.40;1.57;;;;;;;;;;5068320;28;20049;-77
2021/07/06 03:10:27;;;;;;;3.65;2.08;;;;;;;;;;5068497;28;20056;-76
2021/07/06 03:12:54;;;;;;;3.70;1.95;;;;;;;;;;5068644;28;20052;-77
2021/07/06 03:15:23;;;;;;;3.28;1.70;;;;;;;;;;5061653;28;20056;-77
2021/07/06 03:17:50;;;;;;;3.83;1.90;;;;;;;;;;5053190;28;20052;-77
2021/07/06 03:20:19;;;;;;;5.57;2.30;;;;;;;;;;5058955;28;20065;-76
2021/07/06 03:22:48;;;;;;;4.57;2.15;;;;;;;;;;5064932;28;20052;-76
2021/07/06 03:25:16;;;;;;;3.83;1.65;;;;;;;;;;5064564;28;20080;-77
2021/07/06 03:27:43;;;;;;;3.75;1.70;;;;;;;;;;5053542;28;20091;-76
2021/07/06 03:30:13;;;;;;;2.88;1.65;;;;;;;;;;5052929;28;20076;-76
2021/07/06 03:32:40;;;;;;;4.75;1.98;;;;;;;;;;5050742;28;20127;-77
2021/07/06 03:35:08;;;;;;;3.85;1.60;;;;;;;;;;5052248;28;20080;-76
2021/07/06 03:37:35;;;;;;;3.95;2.00;;;;;;;;;;5052435;28;20091;-77
2021/07/06 03:40:05;;;;;;;3.63;1.80;;;;;;;;;;5052222;28;20124;-76
2021/07/06 03:42:31;;;;;;;3.55;1.45;;;;;;;;;;5052077;28;20052;-76
2021/07/06 03:44:58;;;;;;;4.90;1.73;;;;;;;;;;5052380;28;20132;-78
2021/07/06 03:47:25;;;;;;;3.40;1.60;;;;;;;;;;5053321;28;20083;-78
2021/07/06 03:49:51;;;;;;;4.90;1.85;;;;;;;;;;5052642;28;20088;-77
2021/07/06 03:52:18;;;;;;;4.88;1.70;;;;;;;;;;5052177;28;20088;-77
2021/07/06 03:54:45;;;;;;;3.20;1.60;;;;;;;;;;5052287;28;20045;-78
2021/07/06 03:57:13;;;;;;;3.45;1.77;;;;;;;;;;5052705;28;20076;-78
2021/07/06 03:59:39;;;;;;;3.25;1.75;;;;;;;;;;5052576;28;20128;-78
2021/07/06 04:02:06;;;;;;;2.95;1.50;;;;;;;;;;5053454;28;20049;-78
2021/07/06 04:04:33;;;;;;;3.40;1.90;;;;;;;;;;5053359;28;20120;-78
2021/07/06 04:06:59;;;;;;;4.28;1.95;;;;;;;;;;5054577;28;20132;-78
2021/07/06 04:09:26;;;;;;;3.47;1.92;;;;;;;;;;5056513;28;20132;-77
2021/07/06 04:11:53;;;;;;;4.07;2.05;;;;;;;;;;5055678;28;20505;-78
2021/07/06 04:14:21;;;;;;;4.47;2.50;;;;;;;;;;5055889;28;20412;-78
2021/07/06 04:16:47;;;;;;;3.78;1.90;;;;;;;;;;5055611;28;20128;-77
2021/07/06 04:19:14;;;;;;;3.70;2.05;;;;;;;;;;5055695;28;20076;-76
2021/07/06 04:21:41;;;;;;;4.20;1.90;;;;;;;;;;5056150;28;20124;-77
2021/07/06 04:24:07;;;;;;;3.50;1.63;;;;;;;;;;5056473;28;20129;-78
2021/07/06 04:26:34;;;;;;;2.63;1.73;;;;;;;;;;5056029;28;20085;-77
2021/07/06 04:29:01;;;;;;;3.75;2.28;;;;;;;;;;5055376;28;20049;-77
2021/07/06 04:31:29;;;;;;;2.95;1.80;;;;;;;;;;5054982;28;20102;-77
2021/07/06 04:33:55;;;;;;;4.22;1.80;;;;;;;;;;5055663;28;20076;-78
2021/07/06 04:36:22;;;;;;;3.45;2.05;;;;;;;;;;5055717;28;20083;-77
2021/07/06 04:38:49;;;;;;;3.45;1.75;;;;;;;;;;5055510;28;20127;-78
2021/07/06 04:41:15;;;;;;;4.05;2.03;;;;;;;;;;5055383;28;20107;-77
2021/07/06 04:43:42;;;;;;;4.00;1.65;;;;;;;;;;5055332;28;20095;-77
2021/07/06 04:46:09;;;;;;;4.15;1.80;;;;;;;;;;5055389;28;20041;-77
2021/07/06 04:48:37;;;;;;;4.22;1.95;;;;;;;;;;5054803;28;20139;-77
2021/07/06 04:51:05;;;;;;;3.95;1.92;;;;;;;;;;5054383;28;20508;-77
2021/07/06 04:53:32;;;;;;;2.65;1.98;;;;;;;;;;5054628;28;20490;-77
2021/07/06 04:56:01;;;;;;;2.75;1.40;;;;;;;;;;5055114;28;20045;-77
2021/07/06 04:58:27;;;;;;;4.15;1.70;;;;;;;;;;5054923;28;20048;-77
2021/07/06 05:00:55;;;;;;;3.38;1.67;;;;;;;;;;5054802;28;20075;-78
2021/07/06 05:03:24;;;;;;;3.90;1.77;;;;;;;;;;5055866;28;20124;-78
2021/07/06 05:05:53;;;;;;;4.20;2.22;;;;;;;;;;5055695;28;20456;-78
2021/07/06 05:08:19;;;;;;;3.90;1.80;;;;;;;;;;5055675;28;20391;-77
2021/07/06 05:10:46;;;;;;;3.78;1.70;;;;;;;;;;5054366;28;20136;-77
2021/07/06 05:13:13;;;;;;;2.97;1.77;;;;;;;;;;5055507;28;20084;-78
2021/07/06 05:15:40;;;;;;;3.45;1.80;;;;;;;;;;5055738;28;20128;-77
2021/07/06 05:18:06;;;;;;;4.00;1.85;;;;;;;;;;5055491;28;20125;-78
2021/07/06 05:20:33;;;;;;;3.50;1.70;;;;;;;;;;5055166;28;20080;-78
2021/07/06 05:23:01;;;;;;;2.75;1.60;;;;;;;;;;5054875;28;20080;-78
2021/07/06 05:25:28;;;;;;;3.60;1.73;;;;;;;;;;5055390;28;20132;-78
2021/07/06 05:27:54;;;;;;;4.13;1.90;;;;;;;;;;5055876;28;20072;-78
2021/07/06 05:30:21;;;;;;;3.15;1.50;;;;;;;;;;5055021;28;20084;-77
2021/07/06 05:32:48;;;;;;;3.88;1.70;;;;;;;;;;5054407;28;20429;-77
2021/07/06 05:35:15;;;;;;;3.85;1.95;;;;;;;;;;5054369;28;20073;-77
2021/07/06 05:37:42;;;;;;;3.38;1.75;;;;;;;;;;5054142;28;20045;-77
2021/07/06 05:40:12;;;;;;;7.35;2.03;;;;;;;;;;5053836;28;20480;-76
2021/07/06 05:42:40;;;;;;;3.42;2.00;;;;;;;;;;5054066;28;20155;-79
2021/07/06 05:45:08;;;;;;;4.05;2.03;;;;;;;;;;5053941;28;20049;-76
2021/07/06 05:47:37;;;;;;;3.88;1.80;;;;;;;;;;5054155;28;20131;-77
2021/07/06 05:50:06;;;;;;;4.50;1.90;;;;;;;;;;5054887;28;20049;-77
2021/07/06 05:52:33;;;;;;;5.80;2.17;;;;;;;;;;5054208;28;20414;-77
2021/07/06 05:55:00;;;;;;;3.33;1.67;;;;;;;;;;5054277;28;20428;-77
2021/07/06 05:57:30;;;;;;;2.83;1.80;;;;;;;;;;5055191;28;20049;-78
2021/07/06 05:59:57;;;;;;;3.80;2.22;;;;;;;;;;5055320;28;20047;-78
2021/07/06 06:02:24;;;;;;;2.72;1.60;;;;;;;;;;5055013;28;20526;-78
2021/07/06 06:04:51;;;;;;;5.28;2.05;;;;;;;;;;5054945;28;20109;-78
2021/07/06 06:07:18;;;;;;;3.63;1.50;;;;;;;;;;5055257;28;20049;-78
2021/07/06 06:09:44;;;;;;;4.57;1.83;;;;;;;;;;5061318;28;20049;-77
2021/07/06 06:12:11;;;;;;;2.95;1.50;;;;;;;;;;5066276;28;20079;-77
2021/07/06 06:14:40;;;;;;;3.38;1.95;;;;;;;;;;5063814;28;20067;-76
2021/07/06 06:17:07;;;;;;;3.85;1.80;;;;;;;;;;5054512;28;20080;-77
2021/07/06 06:19:34;;;;;;;3.67;1.83;;;;;;;;;;5054408;28;20128;-77
2021/07/06 06:22:00;;;;;;;3.05;1.83;;;;;;;;;;5055063;28;20084;-76
2021/07/06 06:24:27;;;;;;;3.53;1.63;;;;;;;;;;5067209;28;20049;-77
2021/07/06 06:26:54;;;;;;;5.07;1.83;;;;;;;;;;5067300;28;20045;-77
2021/07/06 06:29:20;;;;;;;3.42;1.85;;;;;;;;;;5068143;28;20049;-77
2021/07/06 06:31:48;;;;;;;3.63;1.60;;;;;;;;;;5062040;28;20513;-77
2021/07/06 06:34:15;;;;;;;3.33;1.70;;;;;;;;;;5055460;28;20102;-77
2021/07/06 06:36:42;;;;;;;3.20;1.70;;;;;;;;;;5047289;28;20129;-76
2021/07/06 06:39:08;;;;;;;2.58;1.55;;;;;;;;;;5044856;28;20168;-77
2021/07/06 06:41:35;;;;;;;4.25;1.88;;;;;;;;;;5040939;28;20068;-77
2021/07/06 06:44:02;;;;;;;4.55;1.90;;;;;;;;;;5037151;28;20525;-77
2021/07/06 06:46:29;;;;;;;3.45;1.70;;;;;;;;;;5033843;28;20060;-76
2021/07/06 06:49:00;;;;;;;2.53;1.45;;;;;;;;;;5034052;28;20053;-77
2021/07/06 06:51:27;;;;;;;5.20;1.80;;;;;;;;;;5052536;28;20055;-77
2021/07/06 06:53:53;;;;;;;4.57;2.00;;;;;;;;;;5049647;28;20729;-77
2021/07/06 06:56:20;;;;;;;5.38;1.90;;;;;;;;;;5050401;28;20387;-77
2021/07/06 06:58:47;;;;;;;4.40;1.80;;;;;;;;;;5051094;28;20041;-77
2021/07/06 07:01:14;;;;;;;5.13;1.88;;;;;;;;;;5050219;28;20072;-77
2021/07/06 07:03:40;;;;;;;3.50;1.92;;;;;;;;;;5050283;28;20045;-77
2021/07/06 07:06:09;;;;;;;3.28;1.70;;;;;;;;;;5036119;28;20049;-78
2021/07/06 07:08:35;;;;;;;3.08;1.58;;;;;;;;;;5046455;28;20085;-77
2021/07/06 07:11:02;;;;;;;2.63;1.40;;;;;;;;;;5050303;28;20079;-78
2021/07/06 07:13:29;;;;;;;3.88;1.50;;;;;;;;;;5045182;28;20148;-78
2021/07/06 07:15:56;;;;;;;4.10;1.98;;;;;;;;;;5031076;28;20074;-78
2021/07/06 07:18:22;;;;;;;3.58;1.83;;;;;;;;;;5047080;28;20055;-78
2021/07/06 07:20:49;;;;;;;4.07;2.28;;;;;;;;;;5040476;28;20136;-77
2021/07/06 07:23:17;;;;;;;4.70;1.75;;;;;;;;;;5049595;28;20133;-76
2021/07/06 07:25:44;;;;;;;5.90;1.98;;;;;;;;;;5030462;28;20546;-77
2021/07/06 07:28:11;;;;;;;3.13;1.65;;;;;;;;;;5030693;28;20130;-77
2021/07/06 07:30:37;;;;;;;3.50;1.60;;;;;;;;;;5030467;28;20569;-78
2021/07/06 07:33:04;;;;;;;2.95;1.50;;;;;;;;;;5031170;28;20197;-77
2021/07/06 07:35:33;;;;;;;2.88;1.60;;;;;;;;;;5034653;28;20077;-79
2021/07/06 07:38:03;;;;;;;3.00;1.50;;;;;;;;;;5032326;28;20058;-78
2021/07/06 07:40:31;;;;;;;3.22;1.33;;;;;;;;;;5032007;28;20144;-77
2021/07/06 07:42:58;;;;;;;3.30;1.40;;;;;;;;;;5034590;28;20081;-77
2021/07/06 07:45:25;;;;;;;3.00;1.50;;;;;;;;;;5034884;28;20050;-77
2021/07/06 07:47:52;;;;;;;3.95;1.63;;;;;;;;;;5034569;28;20510;-77
2021/07/06 07:50:18;;;;;;;3.58;1.77;;;;;;;;;;5034718;28;20624;-77
2021/07/06 07:52:45;;;;;;;3.35;1.80;;;;;;;;;;5034812;28;20084;-77
2021/07/06 07:55:12;;;;;;;2.97;1.50;;;;;;;;;;5054429;28;20132;-79
2021/07/06 07:57:40;;;;;;;3.45;1.50;;;;;;;;;;5041326;28;20049;-82
2021/07/06 08:00:08;;;;;;;4.65;1.38;;;;;;;;;;5049500;28;20064;-76
2021/07/06 08:02:34;;;;;;;2.78;1.40;;;;;;;;;;5040121;28;20084;-76
2021/07/06 08:05:01;;;;;;;3.60;1.65;;;;;;;;;;5035346;28;20046;-76
2021/07/06 08:07:28;;;;;;;3.83;1.60;;;;;;;;;;5038293;28;20054;-76
2021/07/06 08:09:55;;;;;;;2.17;1.30;;;;;;;;;;5040769;28;20087;-75
2021/07/06 08:12:22;;;;;;;3.05;1.58;;;;;;;;;;5039308;28;20053;-76
2021/07/06 08:14:51;;;;;;;2.50;1.38;;;;;;;;;;5034239;28;20057;-77
2021/07/06 08:17:18;;;;;;;2.42;1.10;;;;;;;;;;5034629;28;20486;-76
2021/07/06 08:19:45;;;;;;;2.97;1.20;;;;;;;;;;5034404;28;20103;-77
2021/07/06 08:22:12;;;;;;;2.83;1.50;;;;;;;;;;5033283;28;20507;-76
2021/07/06 08:24:38;;;;;;;3.28;1.50;;;;;;;;;;5033744;28;20049;-75
2021/07/06 08:27:05;;;;;;;3.83;1.48;;;;;;;;;;5034433;28;20045;-78
2021/07/06 08:29:33;;;;;;;2.97;1.35;;;;;;;;;;5048434;22;20053;-82
2021/07/06 08:32:01;;;;;;;1.92;1.27;;;;;;;;;;5039636;28;20076;-79
2021/07/06 08:34:28;;;;;;;2.85;1.60;;;;;;;;;;5040442;28;20045;-80
2021/07/06 08:36:58;;;;;;;3.60;1.40;;;;;;;;;;5041013;28;20053;-79
2021/07/06 08:39:28;;;;;;;3.63;1.40;;;;;;;;;;5030372;28;20053;-79
2021/07/06 08:41:55;;;;;;;2.15;1.02;;;;;;;;;;5016831;28;20049;-81
2021/07/06 08:44:22;;;;;;;3.38;1.10;;;;;;;;;;5038764;28;20045;-80
2021/07/06 08:46:50;;;;;;;2.30;1.05;;;;;;;;;;5039065;28;20053;-81
2021/07/06 08:49:19;;;;;;;1.80;1.08;;;;;;;;;;5040392;28;20095;-82
2021/07/06 08:51:50;;;;;;;3.67;1.30;;;;;;;;;;5037169;28;20054;-81
2021/07/06 08:54:17;;;;;;;2.53;1.35;;;;;;;;;;5036513;28;20107;-81
2021/07/06 08:56:44;;;;;;;2.38;1.20;;;;;;;;;;5037142;28;20513;-80
2021/07/06 08:59:11;;;;;;;2.13;1.40;;;;;;;;;;5041466;28;20095;-79
2021/07/06 09:01:37;;;;;;;2.60;1.27;;;;;;;;;;5040129;28;20049;-80
2021/07/06 09:04:06;;;;;;;2.72;1.58;;;;;;;;;;5016663;28;20061;-79
2021/07/06 09:06:54;;;;;;;2.92;1.40;;;;;;;;;;5007532;28;20042;-79
2021/07/06 09:09:22;;;;;;;2.75;1.45;;;;;;;;;;5016621;28;20102;-80
2021/07/06 09:11:50;;;;;;;2.90;1.25;;;;;;;;;;5009416;28;20082;-80
2021/07/06 09:14:17;;;;;;;3.60;1.30;;;;;;;;;;4997544;28;20046;-80
2021/07/06 09:16:44;;;;;;;4.68;1.40;;;;;;;;;;4997523;28;20097;-83
2021/07/06 09:19:22;;;;;;;3.35;1.15;;;;;;;;;;5004148;28;20082;-81
2021/07/06 09:22:10;;;;;;;2.70;1.10;;;;;;;;;;4996639;28;20078;-79
2021/07/06 09:24:37;;;;;;;2.50;1.02;;;;;;;;;;4997924;28;20133;-81
2021/07/06 09:27:19;;;;;;;2.92;1.05;;;;;;;;;;5002230;28;20077;-80
2021/07/06 09:30:08;;;;;;;10.63;6.10;;;;;;;;;;5017226;28;20073;-81
2021/07/06 09:32:36;;;;;;;24.37;11.93;;;;;;;;;;5018104;28;20096;-80
2021/07/06 09:35:08;;;;;;;5.85;2.78;;;;;;;;;;5018933;28;20395;-80
2021/07/06 09:37:52;;;;;;;5.60;2.63;;;;;;;;;;5016545;28;20143;-81
2021/07/06 09:43:16;;;;;;;3.65;1.13;;;;;;;;;;5068734;23;20048;-81
2021/07/06 09:45:46;;;;;;;2.25;1.30;;;;;;;;;;5061036;28;20056;-80
2021/07/06 09:48:13;;;;;;;;;;;;;;;;;;5057452;28;20510;-78
2021/07/06 09:50:40;;;;;;;2.15;1.10;;;;;;;;;;5037380;28;19988;-81
2021/07/06 09:53:24;;;;;;;3.33;1.45;;;;;;;;;;5036432;28;20084;-78
2021/07/06 09:55:51;;;;;;;2.58;1.17;;;;;;;;;;5036899;28;20146;-77
2021/07/06 09:58:18;;;;;;;3.22;1.50;;;;;;;;;;5033058;28;20049;-81
2021/07/06 10:03:26;;;;;;;3.55;1.38;;;;;;;;;;5013291;28;20060;-82
2021/07/06 10:05:52;;;;;;;7.72;2.20;;;;;;;;;;5018331;28;20076;-82
2021/07/06 10:08:20;;;;;;;2.78;1.30;;;;;;;;;;5024613;28;20061;-80
2021/07/06 10:10:48;;;;;;;2.17;1.40;;;;;;;;;;5023421;28;20052;-80
2021/07/06 10:13:16;;;;;;;2.53;1.60;;;;;;;;;;5021544;28;20060;-80
2021/07/06 10:15:43;;;;;;;2.63;1.30;;;;;;;;;;5018885;28;20053;-80
2021/07/06 10:18:11;;;;;;;2.03;1.27;;;;;;;;;;5018358;28;20388;-79
2021/07/06 10:20:38;;;;;;;2.83;1.30;;;;;;;;;;5017010;28;20133;-79
2021/07/06 10:23:05;;;;;;;2.70;1.38;;;;;;;;;;5017652;28;20077;-82
2021/07/06 10:25:35;;;;;;;2.25;1.45;;;;;;;;;;5024099;28;20470;-80
2021/07/06 10:28:06;;;;;;;3.75;1.63;;;;;;;;;;5023779;28;20077;-81
2021/07/06 10:30:40;;;;;;;2.92;1.45;;;;;;;;;;5025954;28;20248;-81
2021/07/06 10:33:13;;;;;;;2.50;1.33;;;;;;;;;;5023771;28;20077;-80
2021/07/06 10:35:49;;;;;;;3.00;1.33;;;;;;;;;;5018835;28;20081;-81
2021/07/06 10:38:41;;;;;;;3.22;1.20;;;;;;;;;;5018431;28;20100;-77
2021/07/06 10:41:15;;;;;;;3.22;1.33;;;;;;;;;;5023189;28;20124;-79
2021/07/06 10:43:57;;;;;;;3.80;1.30;;;;;;;;;;5014193;28;20046;-78
2021/07/06 10:46:45;;;;;;;3.10;1.30;;;;;;;;;;5012335;28;20591;-79
2021/07/06 10:49:15;;;;;;;2.72;1.40;;;;;;;;;;5016196;28;20052;-78
2021/07/06 10:51:53;;;;;;;2.78;1.30;;;;;;;;;;5022110;28;20046;-79
2021/07/06 10:54:35;;;;;;;4.15;1.55;;;;;;;;;;5022352;28;20430;-78
2021/07/06 10:57:23;;;;;;;3.72;1.60;;;;;;;;;;5024508;28;20549;-80
2021/07/06 10:59:53;;;;;;;3.38;1.50;;;;;;;;;;5020883;28;20109;-79
2021/07/06 11:02:24;;;;;;;3.67;1.60;;;;;;;;;;5019896;28;20050;-79
2021/07/06 11:04:56;;;;;;;3.40;1.25;;;;;;;;;;5039217;28;20053;-79
2021/07/06 11:07:45;;;;;;;3.45;2.08;;;;;;;;;;5036260;28;20107;-80
2021/07/06 11:10:12;;;;;;;3.70;2.20;;;;;;;;;;5030778;28;20070;-80
2021/07/06 11:12:43;;;;;;;2.92;1.60;;;;;;;;;;5030076;28;20060;-80
2021/07/06 11:15:25;;;;;;;3.65;1.65;;;;;;;;;;5033736;28;20049;-80
2021/07/06 11:18:00;;;;;;;2.05;1.30;;;;;;;;;;5031170;28;20104;-80
2021/07/06 11:20:34;;;;;;;5.78;1.52;;;;;;;;;;5030905;28;20088;-82
2021/07/06 11:23:02;;;;;;;3.00;1.63;;;;;;;;;;5014935;28;20550;-79
2021/07/06 11:25:37;;;;;;;2.08;1.20;;;;;;;;;;5012091;28;20077;-78
2021/07/06 11:28:10;;;;;;;3.88;1.20;;;;;;;;;;5013551;28;20038;-80
2021/07/06 11:30:41;;;;;;;3.55;1.20;;;;;;;;;;5013179;28;20050;-80
2021/07/06 11:33:09;;;;;;;4.80;1.42;;;;;;;;;;5034133;28;20073;-80
2021/07/06 11:35:38;;;;;;;1.70;1.20;;;;;;;;;;5031392;28;20085;-79
2021/07/06 11:38:07;;;;;;;3.15;1.20;;;;;;;;;;5022416;28;20643;-81
2021/07/06 11:40:35;;;;;;;3.03;1.20;;;;;;;;;;5014551;28;20084;-81
2021/07/06 11:43:02;;;;;;;1.60;1.08;;;;;;;;;;5016017;28;20108;-80
2021/07/06 11:45:30;;;;;;;3.58;1.30;;;;;;;;;;5017874;28;20069;-81
2021/07/06 11:48:05;;;;;;;3.92;1.52;;;;;;;;;;5016586;28;20515;-81
2021/07/06 11:50:32;;;;;;;2.10;1.27;;;;;;;;;;5016426;28;20126;-80
2021/07/06 11:52:59;;;;;;;5.63;2.20;;;;;;;;;;5016354;28;20065;-79
2021/07/06 11:55:26;;;;;;;2.80;1.35;;;;;;;;;;5015528;28;20054;-79
2021/07/06 11:57:54;;;;;;;3.55;1.58;;;;;;;;;;5017172;28;20057;-79
2021/07/06 12:00:22;;;;;;;2.40;1.30;;;;;;;;;;5016663;28;20054;-79
2021/07/06 12:02:51;;;;;;;2.10;1.30;;;;;;;;;;5015456;28;20057;-79
2021/07/06 12:05:20;;;;;;;3.15;1.90;;;;;;;;;;5020921;28;20076;-79
2021/07/06 12:07:47;;;;;;;3.40;1.40;;;;;;;;;;5027380;28;20037;-81
2021/07/06 12:10:13;;;;;;;4.32;2.90;;;;;;;;;;5040663;28;20091;-80
2021/07/06 12:12:40;;;;;;;5.13;1.55;;;;;;;;;;5043358;28;20072;-79
2021/07/06 12:15:08;;;;;;;3.10;1.17;;;;;;;;;;5033037;28;20350;-80
2021/07/06 12:17:35;;;;;;;2.25;1.23;;;;;;;;;;5018006;28;20057;-80
2021/07/06 12:20:15;;;;;;;2.00;1.10;;;;;;;;;;5015376;28;20706;-80
2021/07/06 12:22:42;;;;;;;2.25;1.10;;;;;;;;;;5014583;28;20042;-80
2021/07/06 12:25:11;;;;;;;2.20;1.25;;;;;;;;;;5015234;28;20088;-80
2021/07/06 12:27:38;;;;;;;1.77;1.17;;;;;;;;;;5016020;28;20050;-81
2021/07/06 12:30:05;;;;;;;1.55;1.02;;;;;;;;;;5021167;28;20069;-81
2021/07/06 12:32:32;;;;;;;3.33;1.23;;;;;;;;;;5027268;28;20080;-81
2021/07/06 12:34:59;;;;;;;3.33;1.20;;;;;;;;;;5027525;28;20042;-80
2021/07/06 12:37:29;;;;;;;2.65;1.27;;;;;;;;;;5021640;28;20050;-80
2021/07/06 12:40:03;;;;;;;2.17;1.40;;;;;;;;;;5024231;28;20498;-80
2021/07/06 12:42:35;;;;;;;2.47;1.13;;;;;;;;;;5024312;28;20073;-79
2021/07/06 12:45:08;;;;;;;2.58;1.10;;;;;;;;;;5033795;28;20073;-80
2021/07/06 12:47:38;;;;;;;2.67;1.20;;;;;;;;;;5035831;28;20497;-78
2021/07/06 12:50:07;;;;;;;3.08;1.10;;;;;;;;;;5037099;28;20495;-79
2021/07/06 12:52:39;;;;;;;3.40;1.10;;;;;;;;;;5036795;28;20550;-80
2021/07/06 12:55:09;;;;;;;1.88;1.20;;;;;;;;;;5037593;28;20052;-80
2021/07/06 12:57:37;;;;;;;2.72;1.15;;;;;;;;;;5037196;28;20091;-80
2021/07/06 13:00:13;;;;;;;2.10;1.17;;;;;;;;;;5033911;28;20791;-79
2021/07/06 13:02:40;;;;;;;1.88;0.93;;;;;;;;;;5016332;28;20097;-79
2021/07/06 13:05:18;;;;;;;1.55;1.17;;;;;;;;;;5016508;28;20111;-79
2021/07/06 13:07:47;;;;;;;6.55;1.63;;;;;;;;;;5016490;28;20099;-79
2021/07/06 13:10:18;;;;;;;2.38;1.13;;;;;;;;;;5016364;28;20490;-79
2021/07/06 13:12:45;;;;;;;2.53;1.15;;;;;;;;;;5033089;28;20133;-79
2021/07/06 13:15:13;;;;;;;2.22;1.30;;;;;;;;;;5036212;28;20045;-79
2021/07/06 13:17:47;;;;;;;3.72;1.33;;;;;;;;;;5036161;28;20064;-79
2021/07/06 13:20:16;;;;;;;2.30;1.10;;;;;;;;;;5036136;28;20076;-80
2021/07/06 13:22:43;;;;;;;5.32;1.38;;;;;;;;;;5035697;28;20084;-79
2021/07/06 13:25:13;;;;;;;1.85;1.17;;;;;;;;;;5036769;28;20053;-80
2021/07/06 13:27:41;;;;;;;2.10;1.27;;;;;;;;;;5036704;28;20092;-80
2021/07/06 13:30:10;;;;;;;3.45;1.15;;;;;;;;;;5036394;28;20084;-80
2021/07/06 13:32:39;;;;;;;1.70;0.90;;;;;;;;;;5036933;28;20497;-80
2021/07/06 13:35:07;;;;;;;1.60;1.05;;;;;;;;;;5036706;28;20373;-80
2021/07/06 13:37:34;;;;;;;4.00;1.70;;;;;;;;;;5036457;28;20068;-80
2021/07/06 13:40:00;;;;;;;2.72;1.10;;;;;;;;;;5040952;28;20115;-80
2021/07/06 13:42:28;;;;;;;3.08;1.00;;;;;;;;;;5047503;28;20072;-80
2021/07/06 13:44:55;;;;;;;3.50;1.17;;;;;;;;;;5040571;28;20073;-80
2021/07/06 13:47:22;;;;;;;2.75;1.10;;;;;;;;;;5036762;28;20095;-80
2021/07/06 13:49:48;;;;;;;5.88;1.50;;;;;;;;;;5035487;28;20502;-80
2021/07/06 13:52:15;;;;;;;2.45;1.05;;;;;;;;;;5035131;28;20458;-80
2021/07/06 13:54:44;;;;;;;5.82;1.27;;;;;;;;;;5035221;28;20096;-81
2021/07/06 13:57:13;;;;;;;2.38;0.90;;;;;;;;;;5036240;28;20141;-80
2021/07/06 13:59:41;;;;;;;2.55;1.05;;;;;;;;;;5036714;28;20041;-80
2021/07/06 14:02:08;;;;;;;4.30;1.33;;;;;;;;;;5016246;28;20096;-80
2021/07/06 14:04:35;;;;;;;1.38;0.90;;;;;;;;;;5016103;28;20300;-80
2021/07/06 14:07:04;;;;;;;3.45;1.67;;;;;;;;;;5016091;28;20084;-80
2021/07/06 14:09:31;;;;;;;2.23;1.20;;;;;;;;;;5015675;28;20507;-81
2021/07/06 14:11:59;;;;;;;3.30;1.00;;;;;;;;;;5025997;28;20113;-78
2021/07/06 14:14:26;;;;;;;3.97;1.70;;;;;;;;;;5034024;28;20073;-79
2021/07/06 14:16:54;;;;;;;3.95;0.95;;;;;;;;;;5035393;28;20045;-79
2021/07/06 14:19:21;;;;;;;2.50;1.00;;;;;;;;;;5034518;28;20089;-79
2021/07/06 14:21:48;;;;;;;5.97;1.30;;;;;;;;;;5035422;28;20049;-80
2021/07/06 14:24:15;;;;;;;6.82;1.30;;;;;;;;;;5036415;28;20045;-80
2021/07/06 14:26:42;;;;;;;4.70;1.20;;;;;;;;;;5035525;28;20049;-80
2021/07/06 14:29:10;;;;;;;2.40;1.30;;;;;;;;;;5036524;28;20208;-79
2021/07/06 14:31:37;;;;;;;3.28;1.17;;;;;;;;;;5034814;28;20049;-79
2021/07/06 14:34:07;;;;;;;2.72;1.30;;;;;;;;;;5035621;28;20099;-79
2021/07/06 14:36:34;;;;;;;1.77;1.10;;;;;;;;;;5035491;28;20049;-79
2021/07/06 14:39:01;;;;;;;3.22;1.00;;;;;;;;;;5036302;28;20115;-80
2021/07/06 14:41:28;;;;;;;2.58;1.08;;;;;;;;;;5037032;28;20053;-79
2021/07/06 14:43:54;;;;;;;5.53;1.40;;;;;;;;;;5034870;28;20076;-79
2021/07/06 14:46:21;;;;;;;4.25;1.50;;;;;;;;;;5035946;28;20053;-80
2021/07/06 14:48:48;;;;;;;2.10;1.20;;;;;;;;;;5036118;28;20046;-80
2021/07/06 14:51:16;;;;;;;2.03;1.23;;;;;;;;;;5039261;28;20488;-80
2021/07/06 14:53:42;;;;;;;1.73;1.15;;;;;;;;;;5041547;28;20092;-80
2021/07/06 14:56:09;;;;;;;1.25;1.00;;;;;;;;;;5046245;28;20072;-79